Time;durP1;ratioP1;P1;durP2;ratioP2;P2;SDS_P1;SDS_P2;PMS_P1;PMS_P2;Temp;Humidity;BMP_temperature;BMP_pressure;BME280_temperature;BME280_humidity;BME280_pressure;Samples;Min_cycle;Max_cycle;Signal;HPM_P1;HPM_P2
2023/04/08 00:01:09;;;;;;;31.87;16.87;;;2.10;99.90;;;;;;4438992;28;657497;-66
2023/04/08 00:03:56;;;;;;;37.30;19.03;;;2.10;99.90;;;;;;4422867;28;657393;-66
2023/04/08 00:06:43;;;;;;;33.53;18.10;;;2.10;99.90;;;;;;4451087;28;658106;-66
2023/04/08 00:09:32;;;;;;;30.93;16.87;;;2.10;99.90;;;;;;4439028;28;657850;-66
2023/04/08 00:12:20;;;;;;;29.47;15.80;;;2.00;99.90;;;;;;4443564;28;662480;-67
2023/04/08 00:15:07;;;;;;;32.20;17.33;;;2.00;99.90;;;;;;4420430;28;658775;-67
2023/04/08 00:17:55;;;;;;;37.07;18.50;;;2.00;99.90;;;;;;4442567;28;657345;-66
2023/04/08 00:20:42;;;;;;;32.60;16.90;;;2.00;99.90;;;;;;4417218;28;658276;-65
2023/04/08 00:23:29;;;;;;;37.40;18.83;;;1.90;99.90;;;;;;4442867;28;657534;-66
2023/04/08 00:26:18;;;;;;;42.67;19.70;;;1.90;99.90;;;;;;4435213;28;657798;-66
2023/04/08 00:29:05;;;;;;;41.53;20.20;;;1.90;99.90;;;;;;4429511;28;658491;-68
2023/04/08 00:31:53;;;;;;;37.30;19.43;;;1.90;99.90;;;;;;4461876;28;658686;-65
2023/04/08 00:34:40;;;;;;;42.27;21.83;;;1.90;99.90;;;;;;4441267;28;657580;-68
2023/04/08 00:37:28;;;;;;;41.63;21.80;;;1.90;99.90;;;;;;4451281;28;658344;-67
2023/04/08 00:40:15;;;;;;;42.00;22.90;;;1.90;99.90;;;;;;4440806;28;657487;-67
2023/04/08 00:43:04;;;;;;;46.93;22.60;;;1.80;99.90;;;;;;4452950;28;658267;-66
2023/04/08 00:45:51;;;;;;;46.73;22.83;;;1.80;99.90;;;;;;4434991;28;657232;-66
2023/04/08 00:48:38;;;;;;;46.77;22.60;;;1.80;99.90;;;;;;4443410;28;658159;-66
2023/04/08 00:51:26;;;;;;;42.90;21.07;;;1.80;99.90;;;;;;4431666;28;657742;-66
2023/04/08 00:54:13;;;;;;;43.47;22.03;;;1.80;99.90;;;;;;4444762;28;658489;-66
2023/04/08 00:57:00;;;;;;;45.33;21.10;;;1.80;99.90;;;;;;4434486;28;657692;-67
2023/04/08 00:59:49;;;;;;;39.50;20.60;;;1.80;99.90;;;;;;4457631;28;658170;-65
2023/04/08 01:02:39;;;;;;;38.17;18.80;;;1.80;99.90;;;;;;4433374;28;658766;-66
2023/04/08 01:05:40;;;;;;;36.43;18.77;;;1.80;99.90;;;;;;4437836;28;657574;-66
2023/04/08 01:08:28;;;;;;;35.10;17.63;;;1.80;99.90;;;;;;4437370;28;657514;-67
2023/04/08 01:11:15;;;;;;;38.17;19.40;;;1.80;99.90;;;;;;4441999;28;658583;-67
2023/04/08 01:14:04;;;;;;;34.43;18.20;;;1.70;99.90;;;;;;4464169;28;659412;-66
2023/04/08 01:16:53;;;;;;;33.33;18.03;;;1.70;99.90;;;;;;4434318;28;657545;-66
2023/04/08 01:19:43;;;;;;;38.93;18.77;;;1.70;99.90;;;;;;4438763;28;657419;-67
2023/04/08 01:22:37;;;;;;;36.00;18.73;;;1.70;99.90;;;;;;4437272;28;657577;-66
2023/04/08 01:25:26;;;;;;;33.23;17.77;;;1.60;99.90;;;;;;4423704;28;657835;-66
2023/04/08 01:28:16;;;;;;;30.27;15.87;;;1.50;99.90;;;;;;4424944;28;657855;-65
2023/04/08 01:31:03;;;;;;;34.90;18.53;;;1.40;99.90;;;;;;4428973;28;658062;-66
2023/04/08 01:33:51;;;;;;;31.07;16.17;;;1.40;99.90;;;;;;4436405;28;659002;-68
2023/04/08 01:36:38;;;;;;;29.87;15.27;;;1.30;99.90;;;;;;4453021;28;658499;-66
2023/04/08 01:39:25;;;;;;;32.70;17.90;;;1.30;99.90;;;;;;4443823;28;658205;-68
2023/04/08 01:42:13;;;;;;;29.87;15.27;;;1.10;99.90;;;;;;4456551;28;658812;-66
2023/04/08 01:45:02;;;;;;;29.13;15.47;;;1.10;99.90;;;;;;4446340;28;657146;-67
2023/04/08 01:47:49;;;;;;;27.97;15.10;;;1.00;99.90;;;;;;4449160;28;657490;-65
2023/04/08 01:50:36;;;;;;;30.15;15.75;;;1.00;99.90;;;;;;4431646;28;657691;-66
2023/04/08 01:53:24;;;;;;;29.00;15.30;;;0.90;99.90;;;;;;4451070;28;659127;-66
2023/04/08 01:56:12;;;;;;;29.97;16.77;;;0.90;99.90;;;;;;4436552;28;657737;-66
2023/04/08 01:58:59;;;;;;;32.47;16.92;;;0.80;99.90;;;;;;4456825;28;657995;-66
2023/04/08 02:01:48;;;;;;;33.37;17.40;;;0.90;99.90;;;;;;4427844;28;657961;-67
2023/04/08 02:04:35;;;;;;;37.50;18.70;;;0.90;99.90;;;;;;4439408;28;657801;-68
2023/04/08 02:07:22;;;;;;;34.53;17.90;;;0.90;99.90;;;;;;4457233;28;658580;-68
2023/04/08 02:10:11;;;;;;;35.23;18.00;;;1.00;99.90;;;;;;4446002;28;657306;-67
2023/04/08 02:12:58;;;;;;;36.93;19.13;;;1.00;99.90;;;;;;4455602;28;657635;-66
2023/04/08 02:15:48;;;;;;;33.10;18.38;;;1.10;99.90;;;;;;4439238;28;657830;-68
2023/04/08 02:18:36;;;;;;;38.50;19.60;;;1.20;99.90;;;;;;4435543;28;657680;-68
2023/04/08 02:21:27;;;;;;;33.30;17.70;;;1.20;99.90;;;;;;4459356;28;657351;-66
2023/04/08 02:24:14;;;;;;;40.00;18.10;;;1.20;99.90;;;;;;4431705;28;657833;-67
2023/04/08 02:27:02;;;;;;;34.73;17.97;;;1.20;99.90;;;;;;4435394;28;658747;-66
2023/04/08 02:29:49;;;;;;;34.33;18.33;;;1.20;99.90;;;;;;4454621;28;657727;-66
2023/04/08 02:32:36;;;;;;;28.13;14.60;;;1.20;99.90;;;;;;4430801;28;657908;-66
2023/04/08 02:35:25;;;;;;;37.65;17.33;;;1.30;99.90;;;;;;4437359;28;657361;-66
2023/04/08 02:38:12;;;;;;;32.60;14.87;;;1.30;99.90;;;;;;4433082;28;659073;-66
2023/04/08 02:40:59;;;;;;;35.67;17.03;;;1.30;99.90;;;;;;4440913;28;657784;-66
2023/04/08 02:43:47;;;;;;;32.70;15.93;;;1.30;99.90;;;;;;4422571;28;657892;-66
2023/04/08 02:46:34;;;;;;;145.80;16.77;;;1.30;99.90;;;;;;4452178;28;657373;-66
2023/04/08 02:49:21;;;;;;;35.37;15.60;;;1.30;99.90;;;;;;4434853;28;658728;-65
2023/04/08 02:52:10;;;;;;;37.97;16.65;;;1.40;99.90;;;;;;4455936;28;657994;-65
2023/04/08 02:54:57;;;;;;;36.53;16.53;;;1.30;99.90;;;;;;4436121;28;658410;-66
2023/04/08 02:57:44;;;;;;;36.17;16.07;;;1.30;99.90;;;;;;4452521;28;657716;-66
2023/04/08 03:00:31;;;;;;;39.70;17.33;;;1.30;99.90;;;;;;4434037;28;657871;-67
2023/04/08 03:03:19;;;;;;;37.67;16.97;;;1.30;99.90;;;;;;4451721;28;657209;-66
2023/04/08 03:06:06;;;;;;;38.60;16.83;;;1.30;99.90;;;;;;4431744;28;657615;-66
2023/04/08 03:08:55;;;;;;;37.13;15.63;;;1.30;99.90;;;;;;4453327;28;658505;-66
2023/04/08 03:11:43;;;;;;;35.40;17.47;;;1.30;99.90;;;;;;4386479;28;1162721;-66
2023/04/08 03:14:30;;;;;;;32.73;15.63;;;1.30;99.90;;;;;;4431745;28;658496;-66
2023/04/08 03:17:17;;;;;;;34.43;16.63;;;1.30;99.90;;;;;;4455258;28;658750;-65
2023/04/08 03:20:06;;;;;;;37.47;15.80;;;1.30;99.90;;;;;;4449594;28;658227;-69
2023/04/08 03:22:54;;;;;;;33.07;14.30;;;1.30;99.90;;;;;;4458683;28;657578;-66
2023/04/08 03:25:42;;;;;;;37.47;17.27;;;1.30;99.90;;;;;;4431490;28;657053;-66
2023/04/08 03:28:30;;;;;;;35.40;17.10;;;1.30;99.90;;;;;;4450064;28;657845;-67
2023/04/08 03:31:19;;;;;;;37.13;16.97;;;1.30;99.90;;;;;;4418956;28;659038;-66
2023/04/08 03:34:07;;;;;;;38.57;18.43;;;1.30;99.90;;;;;;4438840;28;658497;-66
2023/04/08 03:36:54;;;;;;;38.70;17.80;;;1.30;99.90;;;;;;4454262;28;657804;-66
2023/04/08 03:39:41;;;;;;;41.13;18.85;;;1.30;99.90;;;;;;4431418;28;657212;-66
2023/04/08 03:42:30;;;;;;;41.73;19.70;;;1.30;99.90;;;;;;4449025;28;658224;-68
2023/04/08 03:45:17;;;;;;;42.77;20.17;;;1.40;99.90;;;;;;4433128;28;658551;-66
2023/04/08 03:48:04;;;;;;;39.43;17.60;;;1.40;99.90;;;;;;4453848;28;657960;-66
2023/04/08 03:50:51;;;;;;;42.63;18.80;;;1.30;99.90;;;;;;4431086;27;658012;-66
2023/04/08 03:53:39;;;;;;;34.80;16.47;;;1.40;99.90;;;;;;4451206;28;657416;-66
2023/04/08 03:56:26;;;;;;;38.63;18.30;;;1.40;99.90;;;;;;4423699;28;657992;-66
2023/04/08 03:59:15;;;;;;;46.95;20.90;;;1.40;99.90;;;;;;4452643;28;658402;-66
2023/04/08 04:02:02;;;;;;;47.77;20.67;;;1.40;99.90;;;;;;4430382;28;658379;-66
2023/04/08 04:04:49;;;;;;;48.93;20.77;;;1.40;99.90;;;;;;4454067;28;657696;-66
2023/04/08 04:07:36;;;;;;;50.43;21.33;;;1.40;99.90;;;;;;4414896;28;657557;-66
2023/04/08 04:10:23;;;;;;;46.70;21.40;;;1.40;99.90;;;;;;4457496;28;657605;-66
2023/04/08 04:13:11;;;;;;;42.67;20.23;;;1.50;99.90;;;;;;4429866;28;658978;-66
2023/04/08 04:15:59;;;;;;;50.17;22.57;;;1.50;99.90;;;;;;4452335;28;658792;-66
2023/04/08 04:18:46;;;;;;;44.53;20.20;;;1.50;99.90;;;;;;4429963;28;657779;-66
2023/04/08 04:21:33;;;;;;;38.23;17.13;;;1.40;99.90;;;;;;4458392;28;658261;-67
2023/04/08 04:24:21;;;;;;;44.20;20.27;;;1.40;99.90;;;;;;4429576;28;659867;-66
2023/04/08 04:27:08;;;;;;;41.83;20.53;;;1.40;99.90;;;;;;4454908;28;658378;-66
2023/04/08 04:29:55;;;;;;;47.83;20.37;;;1.50;99.90;;;;;;4433184;28;657615;-68
2023/04/08 04:32:44;;;;;;;44.40;21.13;;;1.50;99.90;;;;;;4463990;28;657557;-66
2023/04/08 04:35:31;;;;;;;45.27;20.80;;;1.50;99.90;;;;;;4436309;28;657884;-66
2023/04/08 04:38:18;;;;;;;50.47;21.27;;;1.50;99.90;;;;;;4456676;28;657537;-66
2023/04/08 04:41:05;;;;;;;46.53;21.83;;;1.60;99.90;;;;;;4422167;28;657979;-67
2023/04/08 04:43:53;;;;;;;43.93;20.63;;;1.50;99.90;;;;;;4455440;28;658752;-66
2023/04/08 04:46:40;;;;;;;50.40;22.40;;;1.50;99.90;;;;;;4436201;28;657556;-67
2023/04/08 04:49:29;;;;;;;55.83;23.67;;;1.50;99.90;;;;;;4448548;28;658617;-66
2023/04/08 04:52:16;;;;;;;53.77;23.77;;;1.50;99.90;;;;;;4423667;28;658086;-67
2023/04/08 04:55:03;;;;;;;53.67;23.10;;;1.50;99.90;;;;;;4446507;28;658425;-68
2023/04/08 04:57:50;;;;;;;56.53;24.33;;;1.50;99.90;;;;;;4420870;28;657519;-66
2023/04/08 05:00:38;;;;;;;47.17;22.67;;;1.50;99.90;;;;;;4449774;28;658225;-65
2023/04/08 05:03:25;;;;;;;47.17;21.97;;;1.40;99.90;;;;;;4449586;28;657186;-67
2023/04/08 05:06:14;;;;;;;35.50;16.63;;;1.40;99.90;;;;;;4450728;28;658073;-66
2023/04/08 05:09:01;;;;;;;43.43;19.47;;;1.50;99.90;;;;;;4436353;28;657553;-66
2023/04/08 05:11:48;;;;;;;47.53;22.13;;;1.50;99.90;;;;;;4447712;28;658375;-66
2023/04/08 05:14:36;;;;;;;48.93;22.33;;;1.50;99.90;;;;;;4418935;28;657643;-66
2023/04/08 05:17:23;;;;;;;43.70;20.93;;;1.50;99.90;;;;;;4444260;28;658254;-66
2023/04/08 05:20:11;;;;;;;52.17;23.23;;;1.50;99.90;;;;;;4433301;28;658267;-66
2023/04/08 05:23:00;;;;;;;44.93;20.47;;;1.50;99.90;;;;;;4447335;28;658242;-65
2023/04/08 05:25:47;;;;;;;51.27;21.73;;;1.50;99.90;;;;;;4415956;28;658593;-69
2023/04/08 05:28:34;;;;;;;42.90;19.90;;;1.50;99.90;;;;;;4444955;28;657318;-66
2023/04/08 05:31:21;;;;;;;40.40;18.00;;;1.60;99.90;;;;;;4434665;28;657685;-66
2023/04/08 05:34:09;;;;;;;49.30;21.23;;;1.70;99.90;;;;;;4456014;28;658039;-66
2023/04/08 05:36:56;;;;;;;41.03;18.03;;;1.70;99.90;;;;;;4417178;28;657865;-66
2023/04/08 05:39:45;;;;;;;47.95;20.30;;;1.70;99.90;;;;;;4446690;28;658234;-66
2023/04/08 05:42:32;;;;;;;41.40;18.07;;;1.70;99.90;;;;;;4428215;28;658582;-66
2023/04/08 05:45:19;;;;;;;42.17;19.83;;;1.90;99.90;;;;;;4438855;28;657410;-66
2023/04/08 05:48:06;;;;;;;40.42;17.65;;;1.90;99.90;;;;;;4430024;28;659659;-66
2023/04/08 05:50:53;;;;;;;92.17;45.17;;;2.10;99.90;;;;;;4454989;28;657336;-66
2023/04/08 05:53:41;;;;;;;38.13;18.03;;;2.10;99.90;;;;;;4426575;28;657789;-67
2023/04/08 05:56:31;;;;;;;39.73;19.77;;;2.20;99.90;;;;;;4444323;28;658368;-66
2023/04/08 05:59:18;;;;;;;39.80;18.90;;;2.30;99.90;;;;;;4430615;28;658140;-66
2023/04/08 06:02:05;;;;;;;42.10;19.77;;;2.40;99.90;;;;;;4445276;28;658306;-68
2023/04/08 06:04:52;;;;;;;37.53;16.90;;;2.30;99.90;;;;;;4443767;28;658573;-66
2023/04/08 06:07:40;;;;;;;35.70;16.27;;;2.50;99.90;;;;;;4435274;28;658077;-65
2023/04/08 06:10:27;;;;;;;37.50;16.13;;;2.60;1.00;;;;;;4446180;28;658646;-67
2023/04/08 06:13:16;;;;;;;31.10;15.27;;;2.60;1.00;;;;;;4457815;28;656561;-67
2023/04/08 06:16:10;;;;;;;31.37;15.30;;;2.80;22.50;;;;;;4428543;28;656857;-68
2023/04/08 06:18:58;;;;;;;37.20;17.63;;;2.90;1.00;;;;;;4408757;28;657763;-67
2023/04/08 06:21:46;;;;;;;45.63;21.93;;;3.00;99.90;;;;;;4445461;28;657242;-68
2023/04/08 06:24:33;;;;;;;35.53;16.50;;;3.10;99.90;;;;;;4439865;28;658566;-68
2023/04/08 06:27:20;;;;;;;31.20;15.90;;;3.20;99.90;;;;;;4421384;28;658316;-68
2023/04/08 06:30:10;;;;;;;36.40;17.63;;;3.30;99.90;;;;;;4460207;28;658011;-68
2023/04/08 06:32:57;;;;;;;44.13;17.80;;;3.50;99.90;;;;;;4438808;28;658441;-68
2023/04/08 06:35:44;;;;;;;34.73;17.20;;;3.60;1.00;;;;;;4459754;28;657417;-68
2023/04/08 06:38:32;;;;;;;34.73;17.33;;;3.70;1.00;;;;;;4434105;28;657493;-68
2023/04/08 06:41:19;;;;;;;39.63;18.20;;;4.00;1.00;;;;;;4439704;28;656697;-67
2023/04/08 06:44:07;;;;;;;28.30;13.60;;;4.00;99.90;;;;;;4431463;28;656763;-68
2023/04/08 06:46:55;;;;;;;26.07;13.13;;;4.10;99.90;;;;;;4458896;28;657778;-68
2023/04/08 06:49:43;;;;;;;29.00;13.67;;;4.00;99.90;;;;;;4431268;28;658895;-68
2023/04/08 06:52:30;;;;;;;51.93;21.63;;;3.80;99.90;;;;;;4446907;27;657523;-68
2023/04/08 06:55:17;;;;;;;28.73;14.77;;;3.90;99.90;;;;;;4457972;28;658288;-68
2023/04/08 06:58:05;;;;;;;38.03;17.53;;;3.90;99.90;;;;;;4451148;28;657602;-68
2023/04/08 07:00:54;;;;;;;29.13;14.90;;;3.90;99.90;;;;;;4454164;28;658234;-68
2023/04/08 07:03:43;;;;;;;29.13;14.80;;;3.90;99.90;;;;;;4434841;28;657490;-68
2023/04/08 07:06:31;;;;;;;27.80;14.50;;;3.90;99.90;;;;;;4444791;28;657473;-68
2023/04/08 07:09:18;;;;;;;31.77;16.10;;;4.20;99.90;;;;;;4453626;28;657822;-68
2023/04/08 07:12:05;;;;;;;27.43;14.17;;;4.40;99.90;;;;;;4424063;28;658109;-68
2023/04/08 07:14:53;;;;;;;30.07;14.13;;;4.30;99.90;;;;;;4454915;27;658053;-68
2023/04/08 07:17:40;;;;;;;29.03;13.70;;;4.40;99.90;;;;;;4444129;28;657549;-68
2023/04/08 07:20:29;;;;;;;22.93;12.83;;;4.40;99.90;;;;;;4453970;28;659227;-68
2023/04/08 07:23:16;;;;;;;29.90;14.37;;;4.40;99.90;;;;;;4429861;28;658861;-68
2023/04/08 07:26:04;;;;;;;29.97;14.53;;;4.40;99.90;;;;;;4458749;28;658134;-68
2023/04/08 07:28:51;;;;;;;28.00;13.43;;;4.60;99.90;;;;;;4436210;28;658107;-68
2023/04/08 07:31:38;;;;;;;24.10;12.90;;;4.70;99.90;;;;;;4460002;28;657357;-69
2023/04/08 07:34:26;;;;;;;22.33;12.03;;;4.90;99.90;;;;;;4423903;28;659012;-68
2023/04/08 07:37:14;;;;;;;26.87;13.90;;;5.10;99.90;;;;;;4446581;28;658277;-68
2023/04/08 07:40:01;;;;;;;29.70;14.73;;;5.30;99.90;;;;;;4435268;28;658419;-68
2023/04/08 07:42:49;;;;;;;25.10;12.47;;;5.60;99.90;;;;;;4442283;28;657793;-68
2023/04/08 07:45:36;;;;;;;21.27;11.60;;;5.70;99.90;;;;;;4420624;28;657506;-68
2023/04/08 07:48:23;;;;;;;19.83;11.63;;;5.90;99.90;;;;;;4447426;28;658963;-69
2023/04/08 07:51:10;;;;;;;25.30;13.23;;;6.10;99.90;;;;;;4424473;28;657838;-69
2023/04/08 07:54:00;;;;;;;25.57;13.63;;;6.40;99.90;;;;;;4456889;28;659229;-69
2023/04/08 07:56:47;;;;;;;22.67;11.37;;;6.40;99.90;;;;;;4427669;28;658562;-69
2023/04/08 07:59:34;;;;;;;22.23;12.40;;;6.50;99.90;;;;;;4444576;28;657708;-69
2023/04/08 08:02:22;;;;;;;28.93;15.43;;;6.50;99.90;;;;;;4435224;28;659748;-68
2023/04/08 08:05:09;;;;;;;25.20;12.70;;;6.40;99.90;;;;;;4444896;28;657072;-69
2023/04/08 08:07:56;;;;;;;23.03;13.00;;;6.50;99.90;;;;;;4434647;28;657964;-69
2023/04/08 08:10:45;;;;;;;20.50;11.60;;;6.80;99.90;;;;;;4443419;28;658646;-69
2023/04/08 08:13:33;;;;;;;24.98;11.35;;;6.80;99.90;;;;;;4433114;28;658792;-68
2023/04/08 08:16:20;;;;;;;19.67;11.10;;;6.90;99.90;;;;;;4436927;28;657311;-69
2023/04/08 08:19:07;;;;;;;18.83;9.93;;;7.30;99.90;;;;;;4447740;28;658268;-69
2023/04/08 08:21:55;;;;;;;17.30;10.33;;;7.70;99.90;;;;;;4452134;28;658045;-68
2023/04/08 08:24:42;;;;;;;18.00;10.23;;;7.90;99.90;;;;;;4433354;28;659212;-68
2023/04/08 08:27:31;;;;;;;19.33;10.57;;;8.10;99.90;;;;;;4451500;28;657814;-69
2023/04/08 08:30:20;;;;;;;19.17;11.67;;;8.00;99.90;;;;;;4426371;28;658559;-68
2023/04/08 08:33:07;;;;;;;24.30;12.00;;;7.60;99.90;;;;;;4436661;28;658174;-68
2023/04/08 08:35:54;;;;;;;19.02;10.63;;;7.40;99.90;;;;;;4444279;28;658753;-69
2023/04/08 08:38:41;;;;;;;17.50;10.17;;;7.30;99.90;;;;;;4422910;28;657613;-68
2023/04/08 08:41:34;;;;;;;16.00;9.43;;;7.30;99.90;;;;;;4446602;28;657908;-68
2023/04/08 08:44:22;;;;;;;15.97;9.40;;;7.50;99.90;;;;;;4397138;28;657154;-69
2023/04/08 08:47:09;;;;;;;15.27;9.53;;;7.70;99.90;;;;;;4454285;28;656858;-69
2023/04/08 08:49:56;;;;;;;17.47;10.30;;;8.10;99.90;;;;;;4434318;28;657039;-69
2023/04/08 08:52:49;;;;;;;25.07;11.27;;;8.20;99.90;;;;;;4448966;28;658584;-69
2023/04/08 08:55:37;;;;;;;19.00;10.43;;;8.10;99.90;;;;;;4422077;28;657552;-68
2023/04/08 08:58:26;;;;;;;16.77;10.30;;;8.10;99.90;;;;;;4449247;28;658573;-68
2023/04/08 09:01:37;;;;;;;18.63;9.93;;;8.20;99.90;;;;;;4418164;28;657952;-69
2023/04/08 09:04:25;;;;;;;17.00;10.00;;;8.10;99.90;;;;;;4417007;28;656669;-69
2023/04/08 09:07:13;;;;;;;15.77;9.17;;;8.10;99.90;;;;;;4432049;28;658372;-69
2023/04/08 09:10:00;;;;;;;19.97;10.13;;;7.90;99.90;;;;;;4432423;28;656679;-70
2023/04/08 09:12:54;;;;;;;13.70;8.30;;;7.90;99.90;;;;;;4447112;28;658873;-69
2023/04/08 09:16:02;;;;;;;13.37;8.00;;;8.10;99.90;;;;;;4406761;28;657328;-69
2023/04/08 09:18:51;;;;;;;13.53;8.23;;;8.10;99.90;;;;;;4432696;28;657353;-69
2023/04/08 09:21:40;;;;;;;16.53;9.77;;;8.30;99.90;;;;;;4436477;28;656583;-69
2023/04/08 09:24:28;;;;;;;20.63;11.30;;;8.60;99.90;;;;;;4426778;28;657923;-69
2023/04/08 09:27:15;;;;;;;18.48;11.10;;;8.80;99.90;;;;;;4425121;28;657261;-69
2023/04/08 09:30:14;;;;;;;18.77;9.73;;;9.10;99.90;;;;;;4443493;28;659039;-69
2023/04/08 09:33:05;;;;;;;16.20;9.80;;;9.20;99.90;;;;;;4419458;28;657139;-68
2023/04/08 09:35:54;;;;;;;25.60;11.63;;;9.20;99.90;;;;;;4438903;28;657444;-68
2023/04/08 09:38:42;;;;;;;14.40;9.00;;;9.30;99.90;;;;;;4430627;28;657558;-69
2023/04/08 09:41:29;;;;;;;22.87;11.40;;;9.10;99.90;;;;;;4461368;28;656651;-69
2023/04/08 09:44:16;;;;;;;69.57;23.17;;;9.00;99.90;;;;;;4444029;28;657878;-68
2023/04/08 09:47:08;;;;;;;52.03;20.97;;;9.20;99.90;;;;;;4455599;28;657673;-69
2023/04/08 09:49:57;;;;;;;34.87;15.00;;;9.20;99.90;;;;;;4412968;28;659282;-69
2023/04/08 09:52:49;;;;;;;21.00;12.47;;;9.20;99.90;;;;;;4453682;27;657282;-69
2023/04/08 09:55:36;;;;;;;24.83;12.23;;;9.70;99.90;;;;;;4426616;28;657520;-69
2023/04/08 09:58:28;;;;;;;20.50;11.43;;;10.20;99.90;;;;;;4449245;28;658194;-69
2023/04/08 10:01:15;;;;;;;24.80;12.70;;;10.70;99.90;;;;;;4433586;28;658538;-69
2023/04/08 10:04:02;;;;;;;17.60;11.30;;;11.20;99.90;;;;;;4438680;28;659851;-69
2023/04/08 10:06:53;;;;;;;21.07;12.43;;;11.20;99.90;;;;;;4465853;28;658948;-70
2023/04/08 10:09:42;;;;;;;24.90;14.10;;;11.40;99.90;;;;;;4438998;28;658819;-69
2023/04/08 10:12:29;;;;;;;20.60;11.73;;;11.70;99.90;;;;;;4444084;28;658550;-69
2023/04/08 10:15:24;;;;;;;21.73;12.00;;;12.10;99.90;;;;;;4433250;28;658738;-69
2023/04/08 10:18:35;;;;;;;15.97;10.83;;;12.30;99.90;;;;;;4412908;28;659210;-69
2023/04/08 10:21:36;;;;;;;26.77;11.80;;;12.60;99.90;;;;;;4405895;28;658824;-69
2023/04/08 10:24:24;;;;;;;26.63;12.67;;;12.10;99.90;;;;;;4433227;28;658975;-70
2023/04/08 10:27:38;;;;;;;19.30;11.63;;;11.00;99.90;;;;;;4435291;28;658743;-69
2023/04/08 10:30:39;;;;;;;17.47;10.70;;;10.50;99.90;;;;;;4423505;28;658913;-70
2023/04/08 10:33:33;;;;;;;23.37;12.53;;;10.30;99.90;;;;;;4404016;28;659560;-70
2023/04/08 10:36:20;;;;;;;32.73;16.53;;;9.90;99.90;;;;;;4397201;28;659372;-70
2023/04/08 10:39:07;;;;;;;34.50;16.40;;;9.70;99.90;;;;;;4446442;28;658818;-70
2023/04/08 10:41:56;;;;;;;17.63;11.60;;;9.70;99.90;;;;;;4461753;28;657470;-70
2023/04/08 10:44:46;;;;;;;20.03;12.57;;;9.60;99.90;;;;;;4438504;28;659169;-70
2023/04/08 10:47:33;;;;;;;27.87;14.23;;;9.50;99.90;;;;;;4433514;28;658781;-69
2023/04/08 10:50:22;;;;;;;27.37;13.07;;;9.40;99.90;;;;;;4436992;28;657631;-69
2023/04/08 10:53:10;;;;;;;27.20;15.17;;;9.00;99.90;;;;;;4456400;28;657642;-69
2023/04/08 10:56:04;;;;;;;25.53;14.13;;;8.90;99.90;;;;;;4432907;28;659181;-69
2023/04/08 10:58:52;;;;;;;30.80;14.60;;;8.80;99.90;;;;;;4407225;28;658247;-69
2023/04/08 11:01:43;;;;;;;32.03;16.10;;;8.70;99.90;;;;;;4460908;28;657454;-70
2023/04/08 11:04:30;;;;;;;26.13;14.43;;;9.00;99.90;;;;;;4433121;28;658114;-69
2023/04/08 11:07:20;;;;;;;30.87;14.43;;;9.20;99.90;;;;;;4454022;28;658934;-69
2023/04/08 11:10:08;;;;;;;24.97;13.57;;;9.50;99.90;;;;;;4434212;28;658434;-69
2023/04/08 11:12:55;;;;;;;24.87;13.13;;;9.40;99.90;;;;;;4447659;28;657413;-69
2023/04/08 11:15:43;;;;;;;30.90;15.37;;;9.30;99.90;;;;;;4448966;28;658300;-69
2023/04/08 11:18:32;;;;;;;47.20;19.67;;;8.80;99.90;;;;;;4430777;28;657842;-69
2023/04/08 11:21:21;;;;;;;38.57;16.97;;;8.80;99.90;;;;;;4453211;28;658075;-69
2023/04/08 11:24:10;;;;;;;28.87;14.00;;;8.50;99.90;;;;;;4423203;28;657736;-69
2023/04/08 11:26:58;;;;;;;41.63;20.17;;;8.30;99.90;;;;;;4417761;28;658639;-70
2023/04/08 11:29:45;;;;;;;64.37;27.97;;;8.10;99.90;;;;;;4435461;28;657466;-70
2023/04/08 11:32:33;;;;;;;47.63;22.30;;;8.00;99.90;;;;;;4449129;28;658255;-69
2023/04/08 11:35:22;;;;;;;29.13;15.20;;;8.00;99.90;;;;;;4434894;28;657683;-69
2023/04/08 11:38:09;;;;;;;56.00;25.40;;;8.00;99.90;;;;;;4459453;28;657815;-69
2023/04/08 11:40:57;;;;;;;32.23;17.07;;;8.00;99.90;;;;;;4429644;28;657795;-69
2023/04/08 11:43:54;;;;;;;27.80;16.20;;;8.00;99.90;;;;;;4443909;28;658340;-69
2023/04/08 11:46:42;;;;;;;38.00;17.83;;;7.90;99.90;;;;;;4403709;28;657940;-69
2023/04/08 11:49:43;;;;;;;36.03;18.30;;;7.90;99.90;;;;;;4454686;28;657413;-70
2023/04/08 11:52:44;;;;;;;39.57;18.90;;;7.90;99.90;;;;;;4398038;28;658185;-69
2023/04/08 11:55:32;;;;;;;38.67;17.93;;;7.90;99.90;;;;;;4436285;28;658376;-69
2023/04/08 11:58:19;;;;;;;44.87;19.70;;;7.90;99.90;;;;;;4464414;28;657714;-69
2023/04/08 12:01:07;;;;;;;36.93;17.30;;;7.70;99.90;;;;;;4446808;28;658210;-69
2023/04/08 12:03:58;;;;;;;80.77;30.70;;;7.70;99.90;;;;;;4465305;28;658514;-69
2023/04/08 12:06:46;;;;;;;35.50;19.23;;;7.80;99.90;;;;;;4435565;28;658004;-69
2023/04/08 12:09:34;;;;;;;32.73;17.43;;;7.60;99.90;;;;;;4462401;28;658558;-70
2023/04/08 12:12:21;;;;;;;45.63;21.97;;;7.50;99.90;;;;;;4436922;28;657626;-70
2023/04/08 12:15:10;;;;;;;58.67;27.80;;;7.50;99.90;;;;;;4447239;28;657890;-70
2023/04/08 12:17:57;;;;;;;37.60;19.43;;;7.40;99.90;;;;;;4436773;28;659139;-70
2023/04/08 12:20:44;;;;;;;35.60;19.37;;;7.50;99.90;;;;;;4453380;28;658127;-70
2023/04/08 12:23:31;;;;;;;51.88;23.27;;;7.40;99.90;;;;;;4442084;28;657688;-69
2023/04/08 12:26:20;;;;;;;37.30;19.30;;;7.10;99.90;;;;;;4466546;28;658619;-70
2023/04/08 12:29:08;;;;;;;34.80;18.67;;;6.90;99.90;;;;;;4430125;28;659027;-69
2023/04/08 12:31:55;;;;;;;36.90;20.20;;;6.80;99.90;;;;;;4439628;28;657832;-69
2023/04/08 12:34:43;;;;;;;36.53;20.57;;;6.80;99.90;;;;;;4447381;28;658653;-69
2023/04/08 12:37:32;;;;;;;47.27;24.70;;;6.70;99.90;;;;;;4429064;28;658321;-69
2023/04/08 12:40:19;;;;;;;52.27;26.50;;;6.60;99.90;;;;;;4440731;28;657702;-69
2023/04/08 12:43:08;;;;;;;53.47;27.30;;;6.50;99.90;;;;;;4424672;28;658515;-69
2023/04/08 12:45:55;;;;;;;33.87;19.47;;;6.60;99.90;;;;;;4449327;28;657832;-69
2023/04/08 12:48:43;;;;;;;38.27;20.03;;;6.70;99.90;;;;;;4442807;28;659222;-70
2023/04/08 12:51:31;;;;;;;49.03;22.83;;;6.60;99.90;;;;;;4439355;28;657723;-69
2023/04/08 12:54:18;;;;;;;41.07;20.10;;;6.60;99.90;;;;;;4456571;28;659310;-69
2023/04/08 12:57:05;;;;;;;38.57;18.40;;;6.60;99.90;;;;;;4424876;28;657845;-69
2023/04/08 12:59:54;;;;;;;50.17;21.43;;;6.60;99.90;;;;;;4458814;28;659018;-69
2023/04/08 13:02:43;;;;;;;51.77;24.00;;;6.60;99.90;;;;;;4437932;28;658576;-69
2023/04/08 13:05:30;;;;;;;55.37;23.93;;;6.40;99.90;;;;;;4454636;28;658551;-69
2023/04/08 13:08:18;;;;;;;42.90;20.70;;;6.40;99.90;;;;;;4447966;28;659075;-69
2023/04/08 13:11:05;;;;;;;62.00;24.10;;;6.50;99.90;;;;;;4447075;28;658603;-69
2023/04/08 13:13:52;;;;;;;91.53;33.40;;;6.60;99.90;;;;;;4434853;28;658930;-69
2023/04/08 13:16:42;;;;;;;55.90;24.13;;;6.60;99.90;;;;;;4431605;28;657517;-69
2023/04/08 13:19:29;;;;;;;40.90;20.57;;;6.70;99.90;;;;;;4443639;28;658031;-69
2023/04/08 13:22:16;;;;;;;49.65;23.83;;;6.80;99.90;;;;;;4426295;28;657616;-69
2023/04/08 13:25:05;;;;;;;33.23;18.10;;;6.90;99.90;;;;;;4455986;28;657964;-69
2023/04/08 13:27:52;;;;;;;54.40;26.20;;;6.90;99.90;;;;;;4429807;27;658407;-69
2023/04/08 13:30:39;;;;;;;35.77;18.17;;;6.70;99.90;;;;;;4450279;28;657659;-69
2023/04/08 13:33:28;;;;;;;58.63;30.30;;;6.80;99.90;;;;;;4434506;28;657627;-69
2023/04/08 13:36:15;;;;;;;48.30;23.93;;;6.80;99.90;;;;;;4426627;28;657559;-69
2023/04/08 13:39:02;;;;;;;57.43;29.73;;;6.70;99.90;;;;;;4451445;28;658770;-69
2023/04/08 13:41:51;;;;;;;55.93;27.83;;;6.80;99.90;;;;;;4443610;28;657965;-69
2023/04/08 13:44:38;;;;;;;63.93;27.77;;;6.70;99.90;;;;;;4441715;28;658403;-69
2023/04/08 13:47:25;;;;;;;56.93;25.63;;;6.70;99.90;;;;;;4428888;28;657534;-69
2023/04/08 13:50:14;;;;;;;62.73;29.97;;;6.70;99.90;;;;;;4450398;28;657791;-69
2023/04/08 13:53:02;;;;;;;45.23;23.43;;;6.70;99.90;;;;;;4430816;27;658104;-69
2023/04/08 13:55:53;;;;;;;67.70;29.20;;;6.80;99.90;;;;;;4462024;28;657705;-69
2023/04/08 13:58:40;;;;;;;57.63;26.90;;;6.90;99.90;;;;;;4409340;28;658007;-69
2023/04/08 14:01:28;;;;;;;70.17;33.47;;;7.00;99.90;;;;;;4457087;28;657984;-69
2023/04/08 14:04:15;;;;;;;47.77;22.90;;;7.10;99.90;;;;;;4432110;28;657920;-69
2023/04/08 14:07:04;;;;;;;34.30;18.43;;;7.30;99.90;;;;;;4446229;28;657828;-69
2023/04/08 14:09:51;;;;;;;37.80;20.20;;;7.40;99.90;;;;;;4437496;28;657896;-69
2023/04/08 14:12:38;;;;;;;44.50;22.70;;;7.40;99.90;;;;;;4453012;28;659805;-69
2023/04/08 14:15:26;;;;;;;40.30;19.50;;;7.50;99.90;;;;;;4426138;28;657642;-69